sensor_id;sensor_type;location;lat;lon;timestamp;pressure;altitude;pressure_sealevel;temperature;humidity
56594;BME280;42474;51.660;5.824;2023-09-19T00:02:10;1006.9;;;16.6;74
56594;BME280;42474;51.660;5.824;2023-09-19T00:06:10;1006.9;;;16.6;74
56594;BME280;42474;51.660;5.824;2023-09-19T00:10:10;1007;;;16.6;74.5
56594;BME280;42474;51.660;5.824;2023-09-19T00:14:10;1007.1;;;16.6;74
56594;BME280;42474;51.660;5.824;2023-09-19T00:18:10;1007.1;;;16.6;74
56594;BME280;42474;51.660;5.824;2023-09-19T00:22:10;1007.1;;;16.6;74
56594;BME280;42474;51.660;5.824;2023-09-19T00:26:10;1007.1;;;16.5;74
56594;BME280;42474;51.660;5.824;2023-09-19T00:30:11;1007.1;;;16.5;74
56594;BME280;42474;51.660;5.824;2023-09-19T00:34:10;1007.2;;;16.4;74.5
56594;BME280;42474;51.660;5.824;2023-09-19T00:38:10;1007.2;;;16.4;74.5
56594;BME280;42474;51.660;5.824;2023-09-19T00:42:17;1007.2;;;16.3;74.5
56594;BME280;42474;51.660;5.824;2023-09-19T00:46:10;1007.2;;;16.3;74.5
56594;BME280;42474;51.660;5.824;2023-09-19T00:50:10;1007.3;;;16.2;74.5
56594;BME280;42474;51.660;5.824;2023-09-19T00:54:10;1007.3;;;16.2;75
56594;BME280;42474;51.660;5.824;2023-09-19T00:58:10;1007.4;;;16.2;75
56594;BME280;42474;51.660;5.824;2023-09-19T01:02:10;1007.4;;;16.2;75
56594;BME280;42474;51.660;5.824;2023-09-19T01:06:10;1007.5;;;16.1;75
56594;BME280;42474;51.660;5.824;2023-09-19T01:10:11;1007.5;;;16;75
56594;BME280;42474;51.660;5.824;2023-09-19T01:14:14;1007.6;;;16;75
56594;BME280;42474;51.660;5.824;2023-09-19T01:18:12;1007.6;;;16;75
56594;BME280;42474;51.660;5.824;2023-09-19T01:22:12;1007.6;;;16;74.5
56594;BME280;42474;51.660;5.824;2023-09-19T01:26:11;1007.6;;;16;74.5
56594;BME280;42474;51.660;5.824;2023-09-19T01:30:10;1007.7;;;16;74.5
56594;BME280;42474;51.660;5.824;2023-09-19T01:34:10;1007.7;;;16;74
56594;BME280;42474;51.660;5.824;2023-09-19T01:38:10;1007.7;;;15.9;74
56594;BME280;42474;51.660;5.824;2023-09-19T01:42:12;1007.8;;;16;74
56594;BME280;42474;51.660;5.824;2023-09-19T01:46:13;1007.8;;;15.9;74
56594;BME280;42474;51.660;5.824;2023-09-19T01:50:12;1007.8;;;15.9;73.5
56594;BME280;42474;51.660;5.824;2023-09-19T01:54:11;1007.8;;;15.9;73
56594;BME280;42474;51.660;5.824;2023-09-19T01:58:13;1007.8;;;15.8;73
56594;BME280;42474;51.660;5.824;2023-09-19T02:02:10;1007.8;;;15.8;73
56594;BME280;42474;51.660;5.824;2023-09-19T02:06:13;1007.8;;;15.7;72.5
56594;BME280;42474;51.660;5.824;2023-09-19T02:10:10;1007.8;;;15.7;72.5
56594;BME280;42474;51.660;5.824;2023-09-19T02:14:10;1007.8;;;15.7;72
56594;BME280;42474;51.660;5.824;2023-09-19T02:18:10;1007.9;;;15.6;72
56594;BME280;42474;51.660;5.824;2023-09-19T02:22:10;1007.9;;;15.6;72
56594;BME280;42474;51.660;5.824;2023-09-19T02:26:10;1007.9;;;15.6;72
56594;BME280;42474;51.660;5.824;2023-09-19T02:30:11;1008;;;15.6;71.5
56594;BME280;42474;51.660;5.824;2023-09-19T02:34:10;1008;;;15.6;72
56594;BME280;42474;51.660;5.824;2023-09-19T02:38:10;1008;;;15.5;71.5
56594;BME280;42474;51.660;5.824;2023-09-19T02:42:10;1008;;;15.5;72
56594;BME280;42474;51.660;5.824;2023-09-19T02:46:10;1008.1;;;15.4;72
56594;BME280;42474;51.660;5.824;2023-09-19T02:50:10;1008.1;;;15.4;72
56594;BME280;42474;51.660;5.824;2023-09-19T02:54:10;1008.1;;;15.3;72
56594;BME280;42474;51.660;5.824;2023-09-19T02:58:10;1008.1;;;15.3;71.5
56594;BME280;42474;51.660;5.824;2023-09-19T03:02:10;1008.1;;;15.3;71.5
56594;BME280;42474;51.660;5.824;2023-09-19T03:06:10;1008.1;;;15.2;71.5
56594;BME280;42474;51.660;5.824;2023-09-19T03:10:10;1008.2;;;15.2;71.5
56594;BME280;42474;51.660;5.824;2023-09-19T03:14:10;1008.2;;;15.2;71.5
56594;BME280;42474;51.660;5.824;2023-09-19T03:18:10;1008.2;;;15.1;71
56594;BME280;42474;51.660;5.824;2023-09-19T03:22:10;1008.2;;;15.1;71
56594;BME280;42474;51.660;5.824;2023-09-19T03:26:10;1008.2;;;15.1;70.5
56594;BME280;42474;51.660;5.824;2023-09-19T03:30:10;1008.2;;;15.1;70.5
56594;BME280;42474;51.660;5.824;2023-09-19T03:34:10;1008.2;;;15;70
56594;BME280;42474;51.660;5.824;2023-09-19T03:38:10;1008.2;;;15;70
56594;BME280;42474;51.660;5.824;2023-09-19T03:42:10;1008.2;;;15;70
56594;BME280;42474;51.660;5.824;2023-09-19T03:46:10;1008.2;;;15;70
56594;BME280;42474;51.660;5.824;2023-09-19T03:50:10;1008.1;;;14.9;70
56594;BME280;42474;51.660;5.824;2023-09-19T03:54:10;1008.1;;;15;70
56594;BME280;42474;51.660;5.824;2023-09-19T03:58:10;1008.1;;;15;70
56594;BME280;42474;51.660;5.824;2023-09-19T04:02:10;1008.1;;;15;70
56594;BME280;42474;51.660;5.824;2023-09-19T04:06:10;1008.1;;;15;70
56594;BME280;42474;51.660;5.824;2023-09-19T04:10:10;1008.2;;;15;70
56594;BME280;42474;51.660;5.824;2023-09-19T04:14:10;1008.1;;;15;70
56594;BME280;42474;51.660;5.824;2023-09-19T04:18:10;1008.1;;;15;70
56594;BME280;42474;51.660;5.824;2023-09-19T04:22:10;1008.2;;;15;70
56594;BME280;42474;51.660;5.824;2023-09-19T04:26:10;1008.3;;;15;70.5
56594;BME280;42474;51.660;5.824;2023-09-19T04:30:10;1008.3;;;14.9;70.5
56594;BME280;42474;51.660;5.824;2023-09-19T04:34:10;1008.4;;;14.9;70.5
56594;BME280;42474;51.660;5.824;2023-09-19T04:38:10;1008.5;;;14.9;71
56594;BME280;42474;51.660;5.824;2023-09-19T04:42:10;1008.6;;;14.9;71
56594;BME280;42474;51.660;5.824;2023-09-19T04:46:10;1008.7;;;14.9;71
56594;BME280;42474;51.660;5.824;2023-09-19T04:50:10;1008.8;;;14.9;71.5
56594;BME280;42474;51.660;5.824;2023-09-19T04:54:10;1008.8;;;14.9;71.5
56594;BME280;42474;51.660;5.824;2023-09-19T04:58:10;1008.8;;;14.9;71.5
56594;BME280;42474;51.660;5.824;2023-09-19T05:02:10;1008.9;;;14.9;72
56594;BME280;42474;51.660;5.824;2023-09-19T05:06:10;1008.9;;;14.9;72
56594;BME280;42474;51.660;5.824;2023-09-19T05:10:10;1008.8;;;15;72
56594;BME280;42474;51.660;5.824;2023-09-19T05:14:10;1008.8;;;15;72
56594;BME280;42474;51.660;5.824;2023-09-19T05:18:10;1008.9;;;15;72
56594;BME280;42474;51.660;5.824;2023-09-19T05:22:10;1008.9;;;15;72
56594;BME280;42474;51.660;5.824;2023-09-19T05:30:10;1009;;;15;72
56594;BME280;42474;51.660;5.824;2023-09-19T05:34:10;1008.9;;;15.1;72
56594;BME280;42474;51.660;5.824;2023-09-19T05:38:10;1008.9;;;15.1;72.5
56594;BME280;42474;51.660;5.824;2023-09-19T05:42:10;1009;;;15.1;72.5
56594;BME280;42474;51.660;5.824;2023-09-19T05:46:10;1008.9;;;15.1;72
56594;BME280;42474;51.660;5.824;2023-09-19T05:50:10;1008.9;;;15.1;72.5
56594;BME280;42474;51.660;5.824;2023-09-19T05:54:10;1008.9;;;15.2;72.5
56594;BME280;42474;51.660;5.824;2023-09-19T05:58:10;1009;;;15.2;72.5
56594;BME280;42474;51.660;5.824;2023-09-19T06:02:10;1009;;;15.2;72.5
56594;BME280;42474;51.660;5.824;2023-09-19T06:06:10;1008.9;;;15.2;72.5
56594;BME280;42474;51.660;5.824;2023-09-19T06:10:10;1009;;;15.2;72.5
56594;BME280;42474;51.660;5.824;2023-09-19T06:14:10;1009;;;15.3;72.5
56594;BME280;42474;51.660;5.824;2023-09-19T06:18:10;1009;;;15.4;73
56594;BME280;42474;51.660;5.824;2023-09-19T06:22:10;1009;;;15.4;72.5
56594;BME280;42474;51.660;5.824;2023-09-19T06:26:10;1009;;;15.5;73
56594;BME280;42474;51.660;5.824;2023-09-19T06:30:10;1009.1;;;15.5;72.5
56594;BME280;42474;51.660;5.824;2023-09-19T06:34:10;1009.1;;;15.6;72.5
56594;BME280;42474;51.660;5.824;2023-09-19T06:38:10;1009.1;;;15.6;73
56594;BME280;42474;51.660;5.824;2023-09-19T06:42:10;1009.2;;;15.6;72.5
56594;BME280;42474;51.660;5.824;2023-09-19T06:46:10;1009.3;;;15.7;72.5
56594;BME280;42474;51.660;5.824;2023-09-19T06:50:10;1009.4;;;15.7;72.5
56594;BME280;42474;51.660;5.824;2023-09-19T06:54:10;1009.4;;;15.8;73
56594;BME280;42474;51.660;5.824;2023-09-19T06:58:10;1009.3;;;15.9;72.5
56594;BME280;42474;51.660;5.824;2023-09-19T07:02:10;1009.4;;;15.9;72.5
56594;BME280;42474;51.660;5.824;2023-09-19T07:06:10;1009.2;;;15.9;72.5
56594;BME280;42474;51.660;5.824;2023-09-19T07:10:10;1009.3;;;16;72.5
56594;BME280;42474;51.660;5.824;2023-09-19T07:14:10;1009.3;;;16;72.5
56594;BME280;42474;51.660;5.824;2023-09-19T07:18:10;1009.3;;;16.1;72.5
56594;BME280;42474;51.660;5.824;2023-09-19T07:22:10;1009.3;;;16.1;72.5
56594;BME280;42474;51.660;5.824;2023-09-19T07:26:10;1009.4;;;16.2;73
56594;BME280;42474;51.660;5.824;2023-09-19T07:30:11;1009.4;;;16.3;72.5
56594;BME280;42474;51.660;5.824;2023-09-19T07:34:10;1009.3;;;16.3;72
56594;BME280;42474;51.660;5.824;2023-09-19T07:38:10;1009.4;;;16.3;72
56594;BME280;42474;51.660;5.824;2023-09-19T07:42:10;1009.3;;;16.4;72.5
56594;BME280;42474;51.660;5.824;2023-09-19T07:46:10;1009.4;;;16.5;71.5
56594;BME280;42474;51.660;5.824;2023-09-19T07:50:10;1009.4;;;16.6;72
56594;BME280;42474;51.660;5.824;2023-09-19T07:54:10;1009.4;;;16.7;71.5
56594;BME280;42474;51.660;5.824;2023-09-19T07:58:10;1009.4;;;16.9;72
56594;BME280;42474;51.660;5.824;2023-09-19T08:02:10;1009.4;;;16.9;71
56594;BME280;42474;51.660;5.824;2023-09-19T08:06:10;1009.5;;;17;71
56594;BME280;42474;51.660;5.824;2023-09-19T08:10:10;1009.5;;;17.2;71
56594;BME280;42474;51.660;5.824;2023-09-19T08:14:10;1009.5;;;17.4;71
56594;BME280;42474;51.660;5.824;2023-09-19T08:18:10;1009.5;;;17.6;69
56594;BME280;42474;51.660;5.824;2023-09-19T08:22:10;1009.5;;;17.6;69
56594;BME280;42474;51.660;5.824;2023-09-19T08:26:10;1009.6;;;17.7;68
56594;BME280;42474;51.660;5.824;2023-09-19T08:30:11;1009.5;;;17.8;68.5
56594;BME280;42474;51.660;5.824;2023-09-19T08:34:10;1009.6;;;17.8;68.5
56594;BME280;42474;51.660;5.824;2023-09-19T08:38:10;1009.5;;;17.9;68
56594;BME280;42474;51.660;5.824;2023-09-19T08:42:10;1009.5;;;17.9;68
56594;BME280;42474;51.660;5.824;2023-09-19T08:46:11;1009.5;;;18.1;68
56594;BME280;42474;51.660;5.824;2023-09-19T08:50:11;1009.6;;;18.2;67.5
56594;BME280;42474;51.660;5.824;2023-09-19T08:54:12;1009.6;;;18.3;66.5
56594;BME280;42474;51.660;5.824;2023-09-19T08:58:10;1009.6;;;18.4;66
56594;BME280;42474;51.660;5.824;2023-09-19T09:02:11;1009.5;;;18.4;66.5
56594;BME280;42474;51.660;5.824;2023-09-19T09:06:10;1009.6;;;18.5;65.5
56594;BME280;42474;51.660;5.824;2023-09-19T09:10:10;1009.7;;;18.6;66
56594;BME280;42474;51.660;5.824;2023-09-19T09:14:10;1009.6;;;18.7;66
56594;BME280;42474;51.660;5.824;2023-09-19T09:18:10;1009.5;;;18.8;64
56594;BME280;42474;51.660;5.824;2023-09-19T09:22:11;1009.6;;;18.7;64.5
56594;BME280;42474;51.660;5.824;2023-09-19T09:26:10;1009.6;;;18.8;64.5
56594;BME280;42474;51.660;5.824;2023-09-19T09:30:10;1009.5;;;18.8;64
56594;BME280;42474;51.660;5.824;2023-09-19T09:34:10;1009.5;;;18.9;63.5
56594;BME280;42474;51.660;5.824;2023-09-19T09:38:10;1009.5;;;18.9;64.5
56594;BME280;42474;51.660;5.824;2023-09-19T09:42:11;1009.4;;;19.1;63.5
56594;BME280;42474;51.660;5.824;2023-09-19T09:46:12;1009.2;;;19.2;62
56594;BME280;42474;51.660;5.824;2023-09-19T09:50:10;1009.2;;;19.3;61.5
56594;BME280;42474;51.660;5.824;2023-09-19T09:54:10;1009.3;;;19.4;62
56594;BME280;42474;51.660;5.824;2023-09-19T09:58:17;1009.3;;;19.5;62
56594;BME280;42474;51.660;5.824;2023-09-19T10:02:10;1009.3;;;19.6;61.5
56594;BME280;42474;51.660;5.824;2023-09-19T10:06:11;1009.4;;;19.7;62
56594;BME280;42474;51.660;5.824;2023-09-19T10:10:10;1009.3;;;19.9;62
56594;BME280;42474;51.660;5.824;2023-09-19T10:14:11;1009.4;;;20;60.5
56594;BME280;42474;51.660;5.824;2023-09-19T10:18:10;1009.3;;;20;59
56594;BME280;42474;51.660;5.824;2023-09-19T10:22:10;1009.4;;;20.1;58
56594;BME280;42474;51.660;5.824;2023-09-19T10:26:10;1009.3;;;20.1;60
56594;BME280;42474;51.660;5.824;2023-09-19T10:30:10;1009.3;;;20.2;59.5
56594;BME280;42474;51.660;5.824;2023-09-19T10:34:10;1009.3;;;20.4;59.5
56594;BME280;42474;51.660;5.824;2023-09-19T10:38:11;1009.2;;;20.6;58
56594;BME280;42474;51.660;5.824;2023-09-19T10:42:11;1009.2;;;20.9;56.5
56594;BME280;42474;51.660;5.824;2023-09-19T10:46:10;1009.2;;;20.8;57
56594;BME280;42474;51.660;5.824;2023-09-19T10:50:13;1009.2;;;20.8;57.5
56594;BME280;42474;51.660;5.824;2023-09-19T10:54:11;1009.2;;;20.8;56.5
56594;BME280;42474;51.660;5.824;2023-09-19T10:58:10;1009.2;;;20.8;57.5
56594;BME280;42474;51.660;5.824;2023-09-19T11:02:16;1009.2;;;20.9;58
56594;BME280;42474;51.660;5.824;2023-09-19T11:06:11;1009.2;;;21.1;57
56594;BME280;42474;51.660;5.824;2023-09-19T11:10:10;1009.1;;;21.1;55.5
56594;BME280;42474;51.660;5.824;2023-09-19T11:14:14;1009;;;21.1;55.5
56594;BME280;42474;51.660;5.824;2023-09-19T11:18:36;1008.9;;;21.1;56
56594;BME280;42474;51.660;5.824;2023-09-19T11:22:10;1008.8;;;21.1;56
56594;BME280;42474;51.660;5.824;2023-09-19T11:26:13;1008.7;;;21.2;55.5
56594;BME280;42474;51.660;5.824;2023-09-19T11:30:25;1008.8;;;21.2;55.5
56594;BME280;42474;51.660;5.824;2023-09-19T11:34:42;1008.8;;;21.2;56
56594;BME280;42474;51.660;5.824;2023-09-19T11:38:10;1008.7;;;21.3;55
56594;BME280;42474;51.660;5.824;2023-09-19T11:42:40;1008.6;;;21.3;55.5
56594;BME280;42474;51.660;5.824;2023-09-19T11:46:33;1008.6;;;21.3;55.5
56594;BME280;42474;51.660;5.824;2023-09-19T11:50:10;1008.5;;;21.4;55
56594;BME280;42474;51.660;5.824;2023-09-19T11:54:10;1008.5;;;21.5;55
56594;BME280;42474;51.660;5.824;2023-09-19T11:58:10;1008.6;;;21.7;53.5
56594;BME280;42474;51.660;5.824;2023-09-19T12:02:10;1008.4;;;21.9;53
56594;BME280;42474;51.660;5.824;2023-09-19T12:06:10;1008.3;;;22;53.5
56594;BME280;42474;51.660;5.824;2023-09-19T12:10:10;1008.3;;;22.1;53.5
56594;BME280;42474;51.660;5.824;2023-09-19T12:14:10;1008.3;;;22.2;52.5
56594;BME280;42474;51.660;5.824;2023-09-19T12:18:11;1008.3;;;22.2;51.5
56594;BME280;42474;51.660;5.824;2023-09-19T12:22:10;1008.3;;;22.2;51.5
56594;BME280;42474;51.660;5.824;2023-09-19T12:26:10;1008.4;;;22.1;51
56594;BME280;42474;51.660;5.824;2023-09-19T12:30:11;1008.3;;;22.1;51.5
56594;BME280;42474;51.660;5.824;2023-09-19T12:34:10;1008.3;;;22.1;53
56594;BME280;42474;51.660;5.824;2023-09-19T12:38:10;1008.4;;;22.1;51.5
56594;BME280;42474;51.660;5.824;2023-09-19T12:42:10;1008.3;;;22.2;52.5
56594;BME280;42474;51.660;5.824;2023-09-19T12:46:10;1008.6;;;22.3;52
56594;BME280;42474;51.660;5.824;2023-09-19T12:50:11;1008.4;;;22.2;51.5
56594;BME280;42474;51.660;5.824;2023-09-19T12:54:10;1008.4;;;22;51.5
56594;BME280;42474;51.660;5.824;2023-09-19T12:58:12;1008.4;;;21.7;52.5
56594;BME280;42474;51.660;5.824;2023-09-19T13:02:10;1008.4;;;21.6;53.5
56594;BME280;42474;51.660;5.824;2023-09-19T13:06:10;1008.5;;;21.5;53.5
56594;BME280;42474;51.660;5.824;2023-09-19T13:10:10;1008.4;;;21.4;53.5
56594;BME280;42474;51.660;5.824;2023-09-19T13:14:15;1008.4;;;21.5;53.5
56594;BME280;42474;51.660;5.824;2023-09-19T13:18:11;1008.3;;;21.6;55
56594;BME280;42474;51.660;5.824;2023-09-19T13:22:42;1008.4;;;21.7;54
56594;BME280;42474;51.660;5.824;2023-09-19T13:26:10;1008.4;;;21.7;53.5
56594;BME280;42474;51.660;5.824;2023-09-19T13:30:11;1008.4;;;21.7;53.5
56594;BME280;42474;51.660;5.824;2023-09-19T13:34:10;1008.4;;;21.6;54
56594;BME280;42474;51.660;5.824;2023-09-19T13:38:10;1008.5;;;21.5;54.5
56594;BME280;42474;51.660;5.824;2023-09-19T13:42:10;1008.5;;;21.5;55
56594;BME280;42474;51.660;5.824;2023-09-19T13:46:10;1008.4;;;21.5;55
56594;BME280;42474;51.660;5.824;2023-09-19T13:50:10;1008.5;;;21.4;53.5
56594;BME280;42474;51.660;5.824;2023-09-19T13:54:11;1008.4;;;21.4;55
56594;BME280;42474;51.660;5.824;2023-09-19T13:58:10;1008.4;;;21.3;54.5
56594;BME280;42474;51.660;5.824;2023-09-19T14:02:10;1008.4;;;21.3;54.5
56594;BME280;42474;51.660;5.824;2023-09-19T14:06:10;1008.4;;;21.3;54.5
56594;BME280;42474;51.660;5.824;2023-09-19T14:10:11;1008.3;;;21.4;56
56594;BME280;42474;51.660;5.824;2023-09-19T14:14:10;1008.2;;;21.6;54.5
56594;BME280;42474;51.660;5.824;2023-09-19T14:18:10;1008.3;;;21.6;54
56594;BME280;42474;51.660;5.824;2023-09-19T14:22:10;1008.3;;;21.6;54
56594;BME280;42474;51.660;5.824;2023-09-19T14:26:10;1008.3;;;21.5;55
56594;BME280;42474;51.660;5.824;2023-09-19T14:30:11;1008.4;;;21.6;54.5
56594;BME280;42474;51.660;5.824;2023-09-19T14:34:10;1008.4;;;21.6;54.5
56594;BME280;42474;51.660;5.824;2023-09-19T14:38:10;1008.4;;;21.6;54.5
56594;BME280;42474;51.660;5.824;2023-09-19T14:42:10;1008.4;;;21.6;55
56594;BME280;42474;51.660;5.824;2023-09-19T14:46:10;1008.3;;;21.5;55
56594;BME280;42474;51.660;5.824;2023-09-19T14:50:10;1008.2;;;21.5;55.5
56594;BME280;42474;51.660;5.824;2023-09-19T14:54:10;1008.2;;;21.4;55.5
56594;BME280;42474;51.660;5.824;2023-09-19T14:58:10;1008.1;;;21.4;56
56594;BME280;42474;51.660;5.824;2023-09-19T15:02:10;1008.1;;;21.3;55
56594;BME280;42474;51.660;5.824;2023-09-19T15:06:11;1008.1;;;21.3;55.5
56594;BME280;42474;51.660;5.824;2023-09-19T15:10:10;1008.1;;;21.3;56.5
56594;BME280;42474;51.660;5.824;2023-09-19T15:14:10;1008.1;;;21.3;56.5
56594;BME280;42474;51.660;5.824;2023-09-19T15:18:10;1008.2;;;21.3;57
56594;BME280;42474;51.660;5.824;2023-09-19T15:22:10;1008.2;;;21.3;57
56594;BME280;42474;51.660;5.824;2023-09-19T15:26:11;1008.1;;;21.2;56
56594;BME280;42474;51.660;5.824;2023-09-19T15:30:11;1008.1;;;21.1;56.5
56594;BME280;42474;51.660;5.824;2023-09-19T15:34:10;1008.1;;;21.1;56.5
56594;BME280;42474;51.660;5.824;2023-09-19T15:38:10;1008.1;;;21.1;56.5
56594;BME280;42474;51.660;5.824;2023-09-19T15:42:10;1008.1;;;21.1;56.5
56594;BME280;42474;51.660;5.824;2023-09-19T15:46:10;1008.1;;;21;56.5
56594;BME280;42474;51.660;5.824;2023-09-19T15:50:10;1008.1;;;21;57
56594;BME280;42474;51.660;5.824;2023-09-19T15:54:11;1008;;;20.9;57.5
56594;BME280;42474;51.660;5.824;2023-09-19T15:58:10;1008;;;20.9;57.5
56594;BME280;42474;51.660;5.824;2023-09-19T16:02:10;1008;;;20.8;57.5
56594;BME280;42474;51.660;5.824;2023-09-19T16:06:11;1008;;;20.8;57.5
56594;BME280;42474;51.660;5.824;2023-09-19T16:10:10;1008.1;;;20.7;58
56594;BME280;42474;51.660;5.824;2023-09-19T16:14:11;1008.1;;;20.7;58
56594;BME280;42474;51.660;5.824;2023-09-19T16:18:10;1008.1;;;20.6;57.5
56594;BME280;42474;51.660;5.824;2023-09-19T16:22:11;1008.2;;;20.6;58.5
56594;BME280;42474;51.660;5.824;2023-09-19T16:26:11;1008.1;;;20.6;58
56594;BME280;42474;51.660;5.824;2023-09-19T16:30:11;1008.2;;;20.6;58
56594;BME280;42474;51.660;5.824;2023-09-19T16:34:10;1008.2;;;20.6;58.5
56594;BME280;42474;51.660;5.824;2023-09-19T16:38:11;1008.3;;;20.5;58.5
56594;BME280;42474;51.660;5.824;2023-09-19T16:42:11;1008.3;;;20.5;58.5
56594;BME280;42474;51.660;5.824;2023-09-19T16:46:11;1008.3;;;20.5;59
56594;BME280;42474;51.660;5.824;2023-09-19T16:50:11;1008.3;;;20.5;59
56594;BME280;42474;51.660;5.824;2023-09-19T16:54:11;1008.3;;;20.4;59
56594;BME280;42474;51.660;5.824;2023-09-19T16:58:11;1008.2;;;20.4;59
56594;BME280;42474;51.660;5.824;2023-09-19T17:02:11;1008.3;;;20.3;59.5
56594;BME280;42474;51.660;5.824;2023-09-19T17:06:11;1008.3;;;20.3;59.5
56594;BME280;42474;51.660;5.824;2023-09-19T17:10:11;1008.3;;;20.3;59.5
56594;BME280;42474;51.660;5.824;2023-09-19T17:14:11;1008.3;;;20.3;60
56594;BME280;42474;51.660;5.824;2023-09-19T17:18:11;1008.3;;;20.3;60
56594;BME280;42474;51.660;5.824;2023-09-19T17:22:11;1008.3;;;20.2;60
56594;BME280;42474;51.660;5.824;2023-09-19T17:26:11;1008.3;;;20.2;60
56594;BME280;42474;51.660;5.824;2023-09-19T17:30:11;1008.3;;;20.2;60
56594;BME280;42474;51.660;5.824;2023-09-19T17:34:11;1008.2;;;20.2;60
56594;BME280;42474;51.660;5.824;2023-09-19T17:38:11;1008.2;;;20.1;60.5
56594;BME280;42474;51.660;5.824;2023-09-19T17:42:11;1008.2;;;20.1;60
56594;BME280;42474;51.660;5.824;2023-09-19T17:46:11;1008.2;;;20.1;60
56594;BME280;42474;51.660;5.824;2023-09-19T17:50:11;1008.2;;;20;60
56594;BME280;42474;51.660;5.824;2023-09-19T17:54:11;1008.2;;;20.1;60.5
56594;BME280;42474;51.660;5.824;2023-09-19T17:58:11;1008.3;;;20;60
56594;BME280;42474;51.660;5.824;2023-09-19T18:02:11;1008.3;;;20;60.5
56594;BME280;42474;51.660;5.824;2023-09-19T18:06:11;1008.3;;;20;60.5
56594;BME280;42474;51.660;5.824;2023-09-19T18:10:11;1008.3;;;20;60.5
56594;BME280;42474;51.660;5.824;2023-09-19T18:14:11;1008.3;;;20;60.5
56594;BME280;42474;51.660;5.824;2023-09-19T18:18:11;1008.4;;;20;60.5
56594;BME280;42474;51.660;5.824;2023-09-19T18:22:11;1008.4;;;20;61.5
56594;BME280;42474;51.660;5.824;2023-09-19T18:26:11;1008.5;;;19.9;61.5
56594;BME280;42474;51.660;5.824;2023-09-19T18:30:11;1008.5;;;19.8;62
56594;BME280;42474;51.660;5.824;2023-09-19T18:34:11;1008.4;;;19.8;62.5
56594;BME280;42474;51.660;5.824;2023-09-19T18:38:11;1008.5;;;19.8;62.5
56594;BME280;42474;51.660;5.824;2023-09-19T18:42:11;1008.5;;;19.8;62.5
56594;BME280;42474;51.660;5.824;2023-09-19T18:46:11;1008.6;;;19.7;63
56594;BME280;42474;51.660;5.824;2023-09-19T18:50:11;1008.5;;;19.6;63
56594;BME280;42474;51.660;5.824;2023-09-19T18:54:11;1008.5;;;19.6;63
56594;BME280;42474;51.660;5.824;2023-09-19T18:58:11;1008.6;;;19.6;63
56594;BME280;42474;51.660;5.824;2023-09-19T19:02:11;1008.6;;;19.6;63
56594;BME280;42474;51.660;5.824;2023-09-19T19:06:11;1008.6;;;19.6;63
56594;BME280;42474;51.660;5.824;2023-09-19T19:10:11;1008.6;;;19.6;63
56594;BME280;42474;51.660;5.824;2023-09-19T19:14:11;1008.6;;;19.6;63.5
56594;BME280;42474;51.660;5.824;2023-09-19T19:18:11;1008.5;;;19.6;63
56594;BME280;42474;51.660;5.824;2023-09-19T19:22:11;1008.4;;;19.6;63.5
56594;BME280;42474;51.660;5.824;2023-09-19T19:26:11;1008.4;;;19.6;63.5
56594;BME280;42474;51.660;5.824;2023-09-19T19:30:11;1008.5;;;19.6;63
56594;BME280;42474;51.660;5.824;2023-09-19T19:34:11;1008.5;;;19.6;63
56594;BME280;42474;51.660;5.824;2023-09-19T19:38:11;1008.5;;;19.6;63
56594;BME280;42474;51.660;5.824;2023-09-19T19:42:11;1008.4;;;19.6;63.5
56594;BME280;42474;51.660;5.824;2023-09-19T19:46:11;1008.4;;;19.6;63
56594;BME280;42474;51.660;5.824;2023-09-19T19:50:11;1008.3;;;19.6;63.5
56594;BME280;42474;51.660;5.824;2023-09-19T19:54:11;1008.4;;;19.6;63
56594;BME280;42474;51.660;5.824;2023-09-19T19:58:11;1008.5;;;19.5;63.5
56594;BME280;42474;51.660;5.824;2023-09-19T20:02:11;1008.6;;;19.5;63.5
56594;BME280;42474;51.660;5.824;2023-09-19T20:06:11;1008.5;;;19.5;63.5
56594;BME280;42474;51.660;5.824;2023-09-19T20:10:12;1008.5;;;19.5;63.5
56594;BME280;42474;51.660;5.824;2023-09-19T20:14:11;1008.5;;;19.5;63.5
56594;BME280;42474;51.660;5.824;2023-09-19T20:18:11;1008.6;;;19.5;63.5
56594;BME280;42474;51.660;5.824;2023-09-19T20:22:12;1008.5;;;19.5;63.5
56594;BME280;42474;51.660;5.824;2023-09-19T20:26:12;1008.6;;;19.5;63.5
56594;BME280;42474;51.660;5.824;2023-09-19T20:30:11;1008.6;;;19.5;63.5
56594;BME280;42474;51.660;5.824;2023-09-19T20:34:11;1008.5;;;19.5;63
56594;BME280;42474;51.660;5.824;2023-09-19T20:38:11;1008.5;;;19.5;63
56594;BME280;42474;51.660;5.824;2023-09-19T20:42:11;1008.6;;;19.5;63
56594;BME280;42474;51.660;5.824;2023-09-19T20:46:11;1008.6;;;19.5;63
56594;BME280;42474;51.660;5.824;2023-09-19T20:50:11;1008.6;;;19.5;63
56594;BME280;42474;51.660;5.824;2023-09-19T20:54:11;1008.6;;;19.5;63
56594;BME280;42474;51.660;5.824;2023-09-19T20:58:11;1008.5;;;19.5;63
56594;BME280;42474;51.660;5.824;2023-09-19T21:02:11;1008.4;;;19.6;62.5
56594;BME280;42474;51.660;5.824;2023-09-19T21:06:11;1008.4;;;19.6;63
56594;BME280;42474;51.660;5.824;2023-09-19T21:10:11;1008.4;;;19.5;62.5
56594;BME280;42474;51.660;5.824;2023-09-19T21:14:11;1008.5;;;19.5;62.5
56594;BME280;42474;51.660;5.824;2023-09-19T21:18:11;1008.4;;;19.5;63
56594;BME280;42474;51.660;5.824;2023-09-19T21:22:11;1008.4;;;19.6;62.5
56594;BME280;42474;51.660;5.824;2023-09-19T21:26:11;1008.3;;;19.6;62.5
56594;BME280;42474;51.660;5.824;2023-09-19T21:30:11;1008.3;;;19.6;63
56594;BME280;42474;51.660;5.824;2023-09-19T21:34:11;1008.4;;;19.6;63
56594;BME280;42474;51.660;5.824;2023-09-19T21:38:11;1008.3;;;19.6;62.5
56594;BME280;42474;51.660;5.824;2023-09-19T21:42:11;1008.4;;;19.6;63
56594;BME280;42474;51.660;5.824;2023-09-19T21:46:11;1008.3;;;19.6;63
56594;BME280;42474;51.660;5.824;2023-09-19T21:50:11;1008.2;;;19.6;63
56594;BME280;42474;51.660;5.824;2023-09-19T21:54:11;1008.3;;;19.6;62.5
56594;BME280;42474;51.660;5.824;2023-09-19T21:58:11;1008.2;;;19.6;63
56594;BME280;42474;51.660;5.824;2023-09-19T22:02:11;1008.2;;;19.6;63
56594;BME280;42474;51.660;5.824;2023-09-19T22:06:11;1008.2;;;19.6;63
56594;BME280;42474;51.660;5.824;2023-09-19T22:10:11;1008.2;;;19.6;63.5
56594;BME280;42474;51.660;5.824;2023-09-19T22:14:11;1008.2;;;19.6;63
56594;BME280;42474;51.660;5.824;2023-09-19T22:18:11;1008.3;;;19.6;63.5
56594;BME280;42474;51.660;5.824;2023-09-19T22:22:11;1008.2;;;19.6;63
56594;BME280;42474;51.660;5.824;2023-09-19T22:26:12;1008.2;;;19.5;63.5
56594;BME280;42474;51.660;5.824;2023-09-19T22:30:11;1008.2;;;19.5;63.5
56594;BME280;42474;51.660;5.824;2023-09-19T22:34:11;1008.1;;;19.5;63.5
56594;BME280;42474;51.660;5.824;2023-09-19T22:38:11;1008;;;19.5;63.5
56594;BME280;42474;51.660;5.824;2023-09-19T22:42:11;1008.1;;;19.5;63.5
56594;BME280;42474;51.660;5.824;2023-09-19T22:46:11;1008;;;19.5;63.5
56594;BME280;42474;51.660;5.824;2023-09-19T22:50:11;1008;;;19.5;63.5
56594;BME280;42474;51.660;5.824;2023-09-19T22:54:11;1008;;;19.5;63.5